createdAt,value
2023-01-26T11:45:46.222Z,101037.01
2023-01-26T11:48:32.505Z,101037.60
2023-01-26T11:51:09.083Z,101030.42
2023-01-26T11:54:05.650Z,101028.77
2023-01-26T11:56:45.326Z,101028.83
2023-01-26T11:59:24.425Z,101021.88
2023-01-26T12:02:17.520Z,101016.41
2023-01-26T12:04:49.400Z,101012.70
2023-01-26T12:07:25.915Z,101008.76
2023-01-26T12:09:56.873Z,101015.64
2023-01-26T12:12:48.872Z,101009.65
2023-01-26T12:15:34.847Z,101007.36
2023-01-26T12:18:11.367Z,101002.17
2023-01-26T12:20:47.863Z,100991.62
2023-01-26T12:23:30.576Z,100986.85
2023-01-26T12:26:04.051Z,100988.45
2023-01-26T12:28:40.682Z,100985.87
2023-01-26T12:31:20.361Z,100978.91
2023-01-26T12:33:53.751Z,100983.53
2023-01-26T12:36:48.413Z,100971.50
2023-01-26T12:39:24.689Z,100976.06
2023-01-26T12:42:16.207Z,100984.59
2023-01-26T12:44:49.666Z,100980.97
2023-01-26T12:47:32.170Z,100984.06
2023-01-26T12:50:30.035Z,100981.60
2023-01-26T12:53:09.412Z,100971.55
2023-01-26T12:55:52.723Z,100973.83
2023-01-26T12:58:28.788Z,100980.92
2023-01-26T13:01:08.900Z,100974.46
2023-01-26T13:03:42.401Z,100977.88
2023-01-26T13:06:15.878Z,100974.98
2023-01-26T13:09:01.189Z,100972.53
2023-01-26T13:12:00.657Z,100972.48
2023-01-26T13:14:39.462Z,100970.56
2023-01-26T13:17:23.617Z,100965.17
2023-01-26T13:19:57.903Z,100966.20
2023-01-26T13:22:40.743Z,100961.66
2023-01-26T13:25:19.669Z,100963.16
2023-01-26T13:28:05.077Z,100971.94
2023-01-26T13:30:47.438Z,100966.06
2023-01-26T13:33:24.085Z,100966.92
2023-01-26T13:35:56.523Z,100971.84
2023-01-26T13:38:35.771Z,100968.94
2023-01-26T13:41:09.177Z,100974.98
2023-01-26T13:43:48.506Z,100979.00
2023-01-26T13:46:43.215Z,100972.79
2023-01-26T13:49:43.601Z,100975.94
2023-01-26T13:52:26.093Z,100969.27
2023-01-26T13:54:58.247Z,100977.81
2023-01-26T13:57:31.807Z,100969.83
2023-01-26T14:00:03.214Z,100970.05
2023-01-26T14:02:36.616Z,100953.34
2023-01-26T14:05:07.782Z,100959.22
2023-01-26T14:07:41.241Z,100959.13
2023-01-26T14:10:14.928Z,100956.87
2023-01-26T14:12:48.171Z,100954.17
2023-01-26T14:15:30.862Z,100954.59
2023-01-26T14:18:07.044Z,100955.66
2023-01-26T14:20:40.359Z,100960.08
2023-01-26T14:23:18.268Z,100951.98
2023-01-26T14:25:51.800Z,100954.53
2023-01-26T14:28:25.883Z,100958.02
2023-01-26T14:31:00.617Z,100955.92
2023-01-26T14:33:31.939Z,100959.77
2023-01-26T14:36:05.307Z,100965.25
2023-01-26T14:38:50.571Z,100964.99
2023-01-26T14:41:37.165Z,100970.05
2023-01-26T14:44:09.130Z,100964.22
2023-01-26T14:46:54.938Z,100966.75
2023-01-26T14:49:26.261Z,100968.81
2023-01-26T14:51:59.473Z,100971.49
2023-01-26T14:54:33.005Z,100970.13
2023-01-26T14:57:05.159Z,100962.81
2023-01-26T14:59:41.378Z,100964.45
2023-01-26T15:02:23.735Z,100957.68
2023-01-26T15:04:57.340Z,100957.42
2023-01-26T15:07:36.443Z,100968.46
2023-01-26T15:10:26.518Z,100963.70
2023-01-26T15:13:10.452Z,100969.80
2023-01-26T15:15:44.011Z,100966.84
2023-01-26T15:18:20.464Z,100962.16
2023-01-26T15:21:02.749Z,100966.16
2023-01-26T15:23:36.329Z,100962.56
2023-01-26T15:26:12.461Z,100959.88
2023-01-26T15:28:43.302Z,100971.46
2023-01-26T15:31:33.385Z,100961.45
2023-01-26T15:34:04.600Z,100972.39
2023-01-26T15:36:51.090Z,100969.45
2023-01-26T15:39:22.202Z,100972.03
2023-01-26T15:42:14.886Z,100972.76
2023-01-26T15:44:45.472Z,100965.78
2023-01-26T15:47:16.057Z,100960.63
2023-01-26T15:49:46.999Z,100963.37
2023-01-26T15:52:19.769Z,100969.53
2023-01-26T15:54:51.953Z,100974.03
2023-01-26T15:57:22.569Z,100972.83
2023-01-26T15:59:53.100Z,100972.83
2023-01-26T16:02:23.740Z,100975.06
2023-01-26T16:04:54.520Z,100974.93
2023-01-26T16:07:26.621Z,100975.17
2023-01-26T16:10:00.150Z,100976.98
2023-01-26T16:12:32.154Z,100970.13
2023-01-26T16:15:02.599Z,100977.19
2023-01-26T16:17:33.279Z,100974.41
2023-01-26T16:20:04.228Z,100974.08
2023-01-26T16:22:37.750Z,100980.06
2023-01-26T16:25:14.033Z,100974.43
2023-01-26T16:27:44.605Z,100979.23
2023-01-26T16:30:15.335Z,100974.25
2023-01-26T16:32:46.191Z,100974.39
2023-01-26T16:35:19.639Z,100978.30
2023-01-26T16:37:51.827Z,100980.75
2023-01-26T16:40:22.672Z,100970.13
2023-01-26T16:42:54.587Z,100971.58
2023-01-26T16:45:27.597Z,100970.90
2023-01-26T16:48:00.002Z,100974.02
2023-01-26T16:50:31.696Z,100973.33
2023-01-26T16:53:05.620Z,100971.25
2023-01-26T16:55:36.194Z,100969.67
2023-01-26T16:58:06.776Z,100967.91
2023-01-26T17:00:37.388Z,100966.88
2023-01-26T17:03:09.507Z,100969.45
2023-01-26T17:05:40.683Z,100970.30
2023-01-26T17:08:13.293Z,100970.14
2023-01-26T17:11:00.701Z,100966.74
2023-01-26T17:13:17.620Z,100965.38
2023-01-26T17:15:48.260Z,100978.91
2023-01-26T17:18:18.790Z,100977.30
2023-01-26T17:20:49.391Z,100980.38
2023-01-26T17:23:19.924Z,100985.95
2023-01-26T17:25:50.495Z,100970.06
2023-01-26T17:28:21.113Z,100975.09
2023-01-26T17:30:52.940Z,100991.42
2023-01-26T17:33:23.552Z,100983.52
2023-01-26T17:36:04.737Z,100987.34
2023-01-26T17:38:35.422Z,100988.56
2023-01-26T17:41:06.635Z,100985.71
2023-01-26T17:43:37.819Z,100984.02
2023-01-26T17:46:16.910Z,100989.95
2023-01-26T17:48:48.664Z,100982.55
2023-01-26T17:51:21.532Z,100985.51
2023-01-26T17:53:54.080Z,100990.82
2023-01-26T17:56:25.227Z,100996.05
2023-01-26T17:58:56.716Z,100994.41
2023-01-26T18:01:28.018Z,100998.12
2023-01-26T18:03:58.617Z,101000.66
2023-01-26T18:06:29.667Z,100997.26
2023-01-26T18:09:00.246Z,101002.58
2023-01-26T18:11:32.028Z,101002.41
2023-01-26T18:14:02.980Z,101007.59
2023-01-26T18:16:33.985Z,101005.09
2023-01-26T18:19:04.797Z,101010.98
2023-01-26T18:21:36.184Z,101009.77
2023-01-26T18:24:08.580Z,101018.48
2023-01-26T18:26:40.117Z,101015.89
2023-01-26T18:29:12.410Z,101017.41
2023-01-26T18:31:43.698Z,101018.98
2023-01-26T18:34:14.540Z,101017.07
2023-01-26T18:36:45.106Z,101022.98
2023-01-26T18:39:17.627Z,101021.59
2023-01-26T18:41:48.197Z,101020.90
2023-01-26T18:44:18.979Z,101022.73
2023-01-26T18:46:49.557Z,101025.07
2023-01-26T18:52:39.700Z,101021.97
2023-01-26T18:55:26.252Z,101025.67
2023-01-26T18:58:11.010Z,101019.36
2023-01-26T19:00:43.029Z,101022.92
2023-01-26T19:03:21.724Z,101024.55
2023-01-26T19:05:52.662Z,101021.30
2023-01-26T19:08:37.385Z,101027.59
2023-01-26T19:11:06.887Z,101017.44
2023-01-26T19:13:39.341Z,101030.13
2023-01-26T19:16:15.746Z,101030.20
2023-01-26T19:18:51.909Z,101021.94
2023-01-26T19:21:30.624Z,101025.50
2023-01-26T19:24:13.326Z,101023.95
2023-01-26T19:26:45.283Z,101018.16
2023-01-26T19:29:17.605Z,101020.10
2023-01-26T19:31:48.556Z,101011.36
2023-01-26T19:35:06.982Z,101006.12
2023-01-26T19:36:51.478Z,101003.09
2023-01-26T19:39:23.535Z,101004.72
2023-01-26T19:41:54.171Z,101003.70
2023-01-26T19:44:25.069Z,101001.09
2023-01-26T19:46:56.083Z,100996.58
2023-01-26T19:49:38.584Z,100994.32
2023-01-26T19:52:07.657Z,100999.68
2023-01-26T19:54:38.223Z,100987.27
2023-01-26T19:57:10.297Z,101002.98
2023-01-26T19:59:40.900Z,100997.70
2023-01-26T20:02:13.125Z,100996.73
2023-01-26T20:04:45.557Z,100986.93
2023-01-26T20:07:16.184Z,100993.68
2023-01-26T20:09:46.845Z,100987.71
2023-01-26T20:12:18.211Z,100990.13
2023-01-26T20:14:49.080Z,100990.90
2023-01-26T20:17:20.332Z,100993.42
2023-01-26T20:19:51.078Z,100991.96
2023-01-26T20:22:24.438Z,100996.66
2023-01-26T20:24:55.782Z,100996.13
2023-01-26T20:27:26.472Z,101000.20
2023-01-26T20:29:57.120Z,100990.66
2023-01-26T20:32:32.254Z,101001.96
2023-01-26T20:35:10.172Z,101000.13
2023-01-26T20:37:43.067Z,101000.56
2023-01-26T20:40:17.000Z,100997.96
2023-01-26T20:42:49.862Z,100993.80
2023-01-26T20:45:21.902Z,100994.20
2023-01-26T20:47:54.558Z,100989.80
2023-01-26T20:50:28.362Z,100987.71
2023-01-26T20:53:00.404Z,100990.41
2023-01-26T20:55:33.062Z,100989.19
2023-01-26T20:58:06.858Z,100988.82
2023-01-26T21:00:39.185Z,100991.67
2023-01-26T21:03:12.024Z,100993.88
2023-01-26T21:05:43.021Z,100997.06
2023-01-26T21:08:15.613Z,101000.98
2023-01-26T21:10:47.565Z,100995.06
2023-01-26T21:13:22.126Z,100996.37
2023-01-26T21:15:54.408Z,101001.56
2023-01-26T21:18:25.309Z,101003.50
2023-01-26T21:21:01.227Z,101001.75
2023-01-26T21:23:35.934Z,100983.87
2023-01-26T21:26:21.898Z,101004.98
2023-01-26T21:28:56.161Z,101009.52
2023-01-26T21:31:31.757Z,101003.59
2023-01-26T21:34:04.008Z,101004.91
2023-01-26T21:36:37.879Z,100998.05
2023-01-26T21:39:12.490Z,100996.20
2023-01-26T21:42:00.029Z,100993.42
2023-01-26T21:44:35.161Z,100988.20
2023-01-26T21:47:08.762Z,100989.58
2023-01-26T21:49:40.566Z,100985.63
2023-01-26T21:52:32.074Z,100989.27
2023-01-26T21:55:04.841Z,100998.20
2023-01-26T21:57:55.247Z,100992.79
2023-01-26T22:00:27.522Z,100996.20
2023-01-26T22:03:00.343Z,100985.27
2023-01-26T22:05:55.711Z,100992.65
2023-01-26T22:08:29.198Z,100993.19
2023-01-26T22:11:03.254Z,100996.37
2023-01-26T22:13:42.186Z,100992.29
2023-01-26T22:16:20.336Z,100989.27
2023-01-26T22:18:53.592Z,100984.94
2023-01-26T22:21:28.905Z,100988.39
2023-01-26T22:24:12.432Z,100990.03
2023-01-26T22:26:47.313Z,100992.05
2023-01-26T22:29:22.893Z,100988.89
2023-01-26T22:31:55.315Z,100985.67
2023-01-26T22:34:30.455Z,100982.81
2023-01-26T22:37:12.832Z,100985.34
2023-01-26T22:39:45.098Z,100993.48
2023-01-26T22:42:23.159Z,100980.98
2023-01-26T22:44:55.063Z,100986.75
2023-01-26T22:47:28.727Z,100983.98
2023-01-26T22:50:02.277Z,100980.03
2023-01-26T22:52:39.427Z,100978.37
2023-01-26T22:55:13.019Z,100981.64
2023-01-26T22:57:45.990Z,100983.84
2023-01-26T23:00:19.029Z,100983.59
2023-01-26T23:02:50.595Z,100984.12
2023-01-26T23:05:24.706Z,100980.88
2023-01-26T23:07:57.995Z,100991.88
2023-01-26T23:10:34.775Z,100979.50
2023-01-26T23:13:09.601Z,100981.72
2023-01-26T23:15:41.763Z,100992.25
2023-01-26T23:18:16.659Z,100990.46
2023-01-26T23:20:51.226Z,100988.31
2023-01-26T23:23:25.041Z,100984.64
2023-01-26T23:25:59.214Z,100983.59
2023-01-26T23:28:33.475Z,100984.64
2023-01-26T23:31:07.654Z,100992.63
2023-01-26T23:33:40.846Z,100986.36
2023-01-26T23:36:14.595Z,100991.03
2023-01-26T23:38:46.445Z,100988.52
2023-01-26T23:41:22.151Z,100985.81
2023-01-26T23:43:52.799Z,100991.38
2023-01-26T23:46:23.385Z,100988.11
2023-01-26T23:48:53.975Z,100984.88
2023-01-26T23:51:24.548Z,100982.34
2023-01-26T23:53:56.005Z,100979.70
2023-01-26T23:56:27.570Z,100969.00
2023-01-26T23:58:58.139Z,100967.36
